Time;durP1;ratioP1;P1;durP2;ratioP2;P2;SDS_P1;SDS_P2;PMS_P1;PMS_P2;Temp;Humidity;BMP_temperature;BMP_pressure;BME280_temperature;BME280_humidity;BME280_pressure;Samples;Min_cycle;Max_cycle;Signal;HPM_P1;HPM_P2
2022/11/05 00:09:32;;;;;;;6.95;4.13;;;;;;;6.75;100.00;101390.88;4961387;28;20041;-62
2022/11/05 00:17:35;;;;;;;6.72;4.88;;;;;;;6.59;100.00;101389.13;4964866;28;20479;-63
2022/11/05 00:20:00;;;;;;;4.55;3.45;;;;;;;6.52;100.00;101398.19;4953226;28;20434;-62
2022/11/05 00:25:15;;;;;;;6.40;5.03;;;;;;;6.40;100.00;101403.53;4970030;28;20283;-63
2022/11/05 00:27:51;;;;;;;7.13;5.40;;;;;;;6.35;100.00;101410.09;4980191;28;20453;-63
2022/11/05 00:30:20;;;;;;;10.73;6.50;;;;;;;6.31;100.00;101408.13;4963624;28;20073;-63
2022/11/05 00:32:46;;;;;;;10.30;5.45;;;;;;;6.24;100.00;101407.75;4965604;28;20051;-63
2022/11/05 00:35:13;;;;;;;9.80;5.50;;;;;;;6.19;100.00;101409.16;4970779;28;20030;-63
2022/11/05 00:37:38;;;;;;;6.85;5.07;;;;;;;6.15;100.00;101422.66;4970266;28;20027;-63
2022/11/05 00:40:05;;;;;;;5.50;4.85;;;;;;;6.11;100.00;101423.28;4976624;28;20066;-63
2022/11/05 00:45:14;;;;;;;7.10;5.22;;;;;;;5.98;100.00;101425.09;4977082;28;20656;-63
2022/11/05 00:50:25;;;;;;;5.78;5.05;;;;;;;5.89;100.00;101424.50;4962123;28;20042;-62
2022/11/05 00:52:54;;;;;;;5.38;4.88;;;;;;;5.86;100.00;101435.50;4974907;28;20022;-63
2022/11/05 00:55:27;;;;;;;5.35;4.53;;;;;;;5.81;100.00;101438.59;4975820;28;20026;-63
2022/11/05 00:57:53;;;;;;;5.22;4.05;;;;;;;5.80;100.00;101444.53;4970614;28;20072;-63
2022/11/05 01:00:20;;;;;;;4.32;3.33;;;;;;;5.76;100.00;101433.16;4962294;28;20070;-63
2022/11/05 01:02:45;;;;;;;4.40;4.00;;;;;;;5.75;100.00;101436.53;4974055;28;20023;-63
2022/11/05 01:05:11;;;;;;;6.65;4.03;;;;;;;5.71;100.00;101445.75;4985005;28;20478;-63
2022/11/05 01:07:36;;;;;;;5.53;4.07;;;;;;;5.67;100.00;101443.78;4980146;28;20030;-63
2022/11/05 01:10:01;;;;;;;4.82;3.70;;;;;;;5.62;100.00;101447.75;4976048;28;20336;-63
2022/11/05 01:12:27;;;;;;;6.05;3.65;;;;;;;5.56;100.00;101444.81;4965224;28;20027;-63
2022/11/05 01:14:53;;;;;;;5.35;3.78;;;;;;;5.52;100.00;101448.88;4956092;28;20065;-63
2022/11/05 01:17:18;;;;;;;3.45;3.15;;;;;;;5.48;100.00;101452.94;4970182;28;20110;-63
2022/11/05 01:19:43;;;;;;;5.30;4.13;;;;;;;5.43;100.00;101449.19;4969239;28;20530;-63
2022/11/05 01:22:08;;;;;;;4.28;3.58;;;;;;;5.40;100.00;101460.16;4969581;28;20058;-62
2022/11/05 01:24:34;;;;;;;8.02;3.90;;;;;;;5.34;100.00;101464.03;4968446;28;20387;-65
2022/11/05 01:26:59;;;;;;;4.35;3.80;;;;;;;5.30;100.00;101470.66;4969714;28;20073;-63
2022/11/05 01:29:24;;;;;;;5.00;3.92;;;;;;;5.28;100.00;101475.69;4962980;28;20114;-63
2022/11/05 01:31:50;;;;;;;5.28;4.10;;;;;;;5.29;100.00;101468.84;4961490;28;20446;-63
2022/11/05 01:34:15;;;;;;;4.50;4.07;;;;;;;5.27;100.00;101473.91;4951558;28;20168;-63
2022/11/05 01:36:41;;;;;;;4.40;3.90;;;;;;;5.25;100.00;101475.47;4960578;28;20027;-63
2022/11/05 01:39:06;;;;;;;6.47;4.20;;;;;;;5.24;100.00;101473.72;4967015;28;20058;-62
2022/11/05 01:41:31;;;;;;;8.65;4.35;;;;;;;5.28;100.00;101475.69;4958024;28;20086;-63
2022/11/05 01:43:58;;;;;;;5.10;4.60;;;;;;;5.31;100.00;101479.25;4968857;28;20474;-63
2022/11/05 01:46:37;;;;;;;7.43;4.43;;;;;;;5.34;100.00;101476.88;4969175;28;20541;-63
2022/11/05 01:49:27;;;;;;;6.90;5.00;;;;;;;5.38;100.00;101477.16;4968927;28;20031;-63
2022/11/05 01:51:54;;;;;;;4.95;3.97;;;;;;;5.39;100.00;101478.06;4969184;28;20033;-63
2022/11/05 01:54:23;;;;;;;5.43;4.40;;;;;;;5.40;100.00;101479.81;4967899;28;20041;-63
2022/11/05 01:56:58;;;;;;;6.28;4.28;;;;;;;5.38;100.00;101483.97;4968697;28;20262;-63
2022/11/05 01:59:36;;;;;;;5.35;3.90;;;;;;;5.36;100.00;101478.72;4981191;28;20026;-63
2022/11/05 02:02:02;;;;;;;4.25;3.47;;;;;;;5.35;100.00;101478.63;4965495;28;20112;-63
2022/11/05 02:04:50;;;;;;;5.60;3.85;;;;;;;5.33;100.00;101467.38;4985123;28;20041;-63
2022/11/05 02:07:16;;;;;;;6.60;4.05;;;;;;;5.33;100.00;101462.22;4970904;28;20031;-63
2022/11/05 02:10:05;;;;;;;5.22;3.80;;;;;;;5.29;100.00;101462.03;4962845;28;20105;-63
2022/11/05 02:12:32;;;;;;;4.45;3.55;;;;;;;5.27;100.00;101458.47;4957997;28;20023;-63
2022/11/05 02:14:57;;;;;;;9.60;4.03;;;;;;;5.26;100.00;101456.72;4963833;28;20035;-62
2022/11/05 02:17:44;;;;;;;8.70;4.35;;;;;;;5.26;100.00;101460.94;4968563;28;20367;-63
2022/11/05 02:20:22;;;;;;;8.30;4.18;;;;;;;5.26;100.00;101461.84;4958151;28;20030;-63
2022/11/05 02:23:06;;;;;;;8.55;5.00;;;;;;;5.26;100.00;101464.41;4971146;28;20429;-63
2022/11/05 02:25:59;;;;;;;5.97;4.55;;;;;;;5.28;100.00;101472.22;4957036;28;20545;-63
2022/11/05 02:28:58;;;;;;;7.53;5.55;;;;;;;5.26;100.00;101459.28;4962976;28;20556;-62
2022/11/05 02:31:29;;;;;;;9.15;5.18;;;;;;;5.25;100.00;101465.19;4963122;28;20042;-63
2022/11/05 02:34:07;;;;;;;;;;;;;;;5.24;100.00;101463.44;4951020;28;20035;-63
2022/11/05 02:36:45;;;;;;;5.57;4.97;;;;;;;5.21;100.00;101452.97;4964545;28;20430;-63
2022/11/05 02:39:42;;;;;;;8.30;5.13;;;;;;;5.20;100.00;101453.72;4968882;28;20034;-63
2022/11/05 02:42:16;;;;;;;7.75;5.80;;;;;;;5.16;100.00;101456.91;4955794;28;20031;-62
2022/11/05 02:45:24;;;;;;;6.57;5.07;;;;;;;5.13;100.00;101459.28;4966415;28;20363;-63
2022/11/05 02:48:17;;;;;;;9.85;5.70;;;;;;;5.09;100.00;101459.88;4953774;28;20035;-62
2022/11/05 02:50:52;;;;;;;6.45;5.32;;;;;;;5.07;100.00;101454.66;4968954;28;20030;-62
2022/11/05 02:53:28;;;;;;;8.10;5.40;;;;;;;5.07;100.00;101453.75;4968258;28;20054;-62
2022/11/05 02:56:19;;;;;;;7.53;5.20;;;;;;;5.04;100.00;101452.75;4955092;28;20031;-63
2022/11/05 02:58:44;;;;;;;7.47;5.75;;;;;;;5.06;100.00;101452.84;4957372;28;20051;-62
2022/11/05 03:01:11;;;;;;;9.73;6.77;;;;;;;5.07;100.00;101457.22;4967070;28;20057;-63
2022/11/05 03:03:41;;;;;;;11.63;7.27;;;;;;;5.07;100.00;101457.22;4969354;28;20403;-63
2022/11/05 03:06:38;;;;;;;6.45;5.85;;;;;;;5.09;100.00;101450.47;4971349;28;20415;-64
2022/11/05 03:09:09;;;;;;;10.67;6.83;;;;;;;5.11;100.00;101453.16;4957977;28;20034;-63
2022/11/05 03:11:46;;;;;;;10.18;6.18;;;;;;;5.10;100.00;101443.66;4966975;28;20045;-62
2022/11/05 03:14:28;;;;;;;10.32;6.45;;;;;;;5.08;100.00;101451.28;4968148;28;20038;-62
2022/11/05 03:17:25;;;;;;;8.77;6.47;;;;;;;5.07;100.00;101446.03;4969763;28;20027;-65
2022/11/05 03:20:09;;;;;;;9.50;7.22;;;;;;;5.08;100.00;101455.50;4968500;28;20077;-64
2022/11/05 03:22:46;;;;;;;11.52;7.18;;;;;;;5.09;100.00;101452.19;4973740;28;20034;-64
2022/11/05 03:25:16;;;;;;;8.73;7.43;;;;;;;5.09;100.00;101457.31;4970545;28;20019;-65
2022/11/05 03:27:46;;;;;;;10.80;8.40;;;;;;;5.04;100.00;101454.44;4966119;28;20037;-64
2022/11/05 03:30:15;;;;;;;10.60;7.80;;;;;;;5.07;100.00;101458.88;4969782;28;20070;-64
2022/11/05 03:32:47;;;;;;;12.98;9.20;;;;;;;5.05;100.00;101457.09;4975293;28;20058;-65
2022/11/05 03:35:24;;;;;;;9.20;8.30;;;;;;;5.04;100.00;101460.47;4970421;28;20023;-62
2022/11/05 03:37:55;;;;;;;10.75;9.27;;;;;;;5.04;100.00;101469.84;4962311;28;20034;-62
2022/11/05 03:40:21;;;;;;;;;;;;;;;5.04;100.00;101460.47;4965291;28;20023;-62
2022/11/05 03:42:52;;;;;;;12.50;8.30;;;;;;;5.00;100.00;101468.75;4954820;28;19938;-62
2022/11/05 03:45:23;;;;;;;13.77;9.02;;;;;;;4.99;100.00;101467.00;4967416;28;20549;-62
2022/11/05 03:47:51;;;;;;;14.80;10.18;;;;;;;4.97;100.00;101467.66;4965458;28;20030;-62
2022/11/05 03:50:31;;;;;;;11.67;10.23;;;;;;;4.96;100.00;101466.81;4967738;28;20037;-65
2022/11/05 03:53:17;;;;;;;14.52;9.45;;;;;;;4.95;100.00;101464.13;4965635;28;20470;-64
2022/11/05 03:56:04;;;;;;;14.67;10.00;;;;;;;4.91;100.00;101466.47;4969473;28;20459;-64
2022/11/05 03:58:30;;;;;;;15.13;11.18;;;;;;;4.91;100.00;101463.03;4954187;28;20042;-64
2022/11/05 04:00:58;;;;;;;15.10;10.38;;;;;;;4.92;100.00;101467.38;4957622;28;20596;-64
2022/11/05 04:03:24;;;;;;;18.70;10.63;;;;;;;4.92;100.00;101467.38;4966491;28;20035;-64
2022/11/05 04:13:23;;;;;;;15.27;10.20;;;;;;;4.91;100.00;101468.19;4968891;28;20533;-64
2022/11/05 04:14:02;;;;;;;12.70;10.18;;;;;;;4.87;100.00;101463.63;4961384;28;20569;-62
2022/11/05 04:19:12;;;;;;;13.93;11.40;;;;;;;4.85;100.00;101478.94;4951939;28;20366;-62
2022/11/05 04:24:21;;;;;;;12.30;11.00;;;;;;;4.86;100.00;101479.81;4970875;28;20125;-62
2022/11/05 04:26:46;;;;;;;12.43;11.10;;;;;;;4.84;100.00;101482.28;4979001;28;20110;-62
2022/11/05 04:31:56;;;;;;;12.53;10.73;;;;;;;4.87;100.00;101481.59;4969691;28;20461;-62
2022/11/05 04:34:21;;;;;;;13.88;10.70;;;;;;;4.87;100.00;101486.75;4962871;28;20031;-62
2022/11/05 04:36:48;;;;;;;14.98;11.40;;;;;;;4.89;100.00;101485.16;4957327;28;20331;-62
2022/11/05 04:39:17;;;;;;;13.20;10.57;;;;;;;4.83;100.00;101489.88;4971487;28;20038;-62
2022/11/05 04:41:46;;;;;;;12.37;10.30;;;;;;;4.84;100.00;101489.13;4976005;28;20084;-62
2022/11/05 04:44:12;;;;;;;11.73;10.43;;;;;;;4.83;100.00;101484.75;4966571;28;20399;-62
2022/11/05 04:46:37;;;;;;;14.00;10.47;;;;;;;4.78;100.00;101493.06;4965933;28;20023;-62
2022/11/05 04:49:02;;;;;;;13.63;10.90;;;;;;;4.74;100.00;101491.06;4950623;28;20486;-62
2022/11/05 04:51:28;;;;;;;13.10;10.40;;;;;;;4.72;100.00;101497.78;4965838;28;20038;-62
2022/11/05 04:53:53;;;;;;;12.40;10.03;;;;;;;4.69;100.00;101505.28;4972581;28;20037;-62
2022/11/05 04:56:20;;;;;;;14.27;10.67;;;;;;;4.66;100.00;101499.91;4964125;28;20068;-62
2022/11/05 04:58:46;;;;;;;13.50;10.93;;;;;;;4.63;100.00;101503.19;4957489;28;20487;-62
2022/11/05 05:01:13;;;;;;;13.20;10.82;;;;;;;4.62;100.00;101508.22;4952125;28;20125;-62
2022/11/05 05:03:39;;;;;;;14.83;11.70;;;;;;;4.60;100.00;101507.22;4971668;28;20037;-62
2022/11/05 05:06:04;;;;;;;14.07;10.75;;;;;;;4.59;100.00;101513.16;4970140;28;20035;-61
2022/11/05 05:08:29;;;;;;;15.90;11.97;;;;;;;4.54;100.00;101515.41;4972052;28;20023;-62
2022/11/05 05:10:55;;;;;;;16.93;12.03;;;;;;;4.52;100.00;101523.00;4969383;28;20201;-62
2022/11/05 05:13:20;;;;;;;14.53;11.63;;;;;;;4.55;100.00;101517.19;4956425;28;20031;-62
2022/11/05 05:15:46;;;;;;;16.57;12.43;;;;;;;4.53;100.00;101511.06;4970797;28;20026;-62
2022/11/05 05:18:11;;;;;;;16.27;13.03;;;;;;;4.52;100.00;101515.28;4974437;28;20033;-62
2022/11/05 05:23:20;;;;;;;13.10;11.70;;;;;;;4.52;100.00;101525.56;4968311;28;20045;-62
2022/11/05 05:25:45;;;;;;;14.30;12.17;;;;;;;4.49;100.00;101519.31;4966886;28;20122;-62
2022/11/05 05:28:10;;;;;;;16.67;12.60;;;;;;;4.46;100.00;101525.16;4972751;28;20463;-62
2022/11/05 05:30:36;;;;;;;13.10;11.67;;;;;;;4.47;100.00;101521.78;4969698;28;20057;-62
2022/11/05 05:33:02;;;;;;;14.13;12.43;;;;;;;4.49;100.00;101524.47;4981890;28;20459;-63
2022/11/05 05:35:28;;;;;;;13.97;12.40;;;;;;;4.47;100.00;101520.91;4958126;28;20042;-62
2022/11/05 05:37:56;;;;;;;17.90;13.27;;;;;;;4.48;100.00;101532.97;4967745;28;20482;-62
2022/11/05 05:40:22;;;;;;;15.17;12.63;;;;;;;4.46;100.00;101527.72;4969264;28;20391;-62
2022/11/05 05:42:53;;;;;;;14.53;12.00;;;;;;;4.45;100.00;101531.06;4968599;28;20360;-62
2022/11/05 05:45:18;;;;;;;15.67;13.20;;;;;;;4.43;100.00;101530.06;4960420;28;20074;-62
2022/11/05 05:47:43;;;;;;;14.73;12.23;;;;;;;4.39;100.00;101533.22;4964847;28;20030;-62
2022/11/05 05:50:08;;;;;;;13.53;11.93;;;;;;;4.37;100.00;101534.78;4969228;28;20154;-62
2022/11/05 05:52:34;;;;;;;15.77;12.23;;;;;;;4.38;100.00;101531.44;4968821;28;20478;-62
2022/11/05 05:54:59;;;;;;;16.37;12.07;;;;;;;4.36;100.00;101538.13;4969011;28;20390;-62
2022/11/05 05:57:24;;;;;;;14.13;12.57;;;;;;;4.35;100.00;101531.22;4978572;28;20490;-62
2022/11/05 05:59:50;;;;;;;14.87;12.73;;;;;;;4.32;100.00;101531.88;4972724;28;20109;-62
2022/11/05 06:02:15;;;;;;;15.80;12.27;;;;;;;4.28;100.00;101525.66;4979016;28;20019;-62
2022/11/05 06:04:41;;;;;;;14.70;11.80;;;;;;;4.29;100.00;101530.03;4979877;28;20040;-61
2022/11/05 06:07:07;;;;;;;15.67;11.73;;;;;;;4.28;100.00;101533.34;4984064;28;20046;-62
2022/11/05 06:09:32;;;;;;;15.67;12.13;;;;;;;4.30;100.00;101529.22;4978018;28;20074;-62
2022/11/05 06:11:57;;;;;;;13.63;11.23;;;;;;;4.28;100.00;101530.78;4974105;28;20042;-62
2022/11/05 06:14:23;;;;;;;18.45;13.05;;;;;;;4.28;100.00;101535.91;4974292;28;20108;-62
2022/11/05 06:16:48;;;;;;;16.20;11.77;;;;;;;4.26;100.00;101527.25;4966849;28;20437;-62
2022/11/05 06:19:13;;;;;;;18.00;12.57;;;;;;;4.26;100.00;101532.38;4967536;28;20411;-63
2022/11/05 06:21:38;;;;;;;17.23;12.27;;;;;;;4.28;100.00;101535.91;4974317;28;20244;-63
2022/11/05 06:24:04;;;;;;;15.85;11.43;;;;;;;4.28;100.00;101541.06;4972031;28;20046;-62
2022/11/05 06:26:29;;;;;;;16.83;12.27;;;;;;;4.24;100.00;101544.22;4963730;28;20035;-62
2022/11/05 06:28:55;;;;;;;14.23;11.65;;;;;;;4.24;100.00;101539.09;4969958;28;20030;-62
2022/11/05 06:31:21;;;;;;;16.27;11.87;;;;;;;4.27;100.00;101543.53;4974598;28;20023;-62
2022/11/05 06:33:46;;;;;;;13.57;11.67;;;;;;;4.24;100.00;101544.22;4972309;28;20590;-62
2022/11/05 06:36:14;;;;;;;12.67;11.37;;;;;;;4.25;100.00;101545.09;4953351;28;20100;-62
2022/11/05 06:38:39;;;;;;;14.90;11.70;;;;;;;4.25;100.00;101551.13;4961112;28;20527;-62
2022/11/05 06:41:05;;;;;;;15.70;12.13;;;;;;;4.23;100.00;101547.53;4964233;28;20546;-62
2022/11/05 06:43:31;;;;;;;18.07;13.57;;;;;;;4.24;100.00;101549.34;4968611;28;20042;-62
2022/11/05 06:46:00;;;;;;;15.80;10.93;;;;;;;4.23;100.00;101552.69;4965466;28;20479;-62
2022/11/05 06:48:25;;;;;;;12.37;11.03;;;;;;;4.23;100.00;101547.53;4955776;28;20043;-62
2022/11/05 06:50:50;;;;;;;12.83;11.13;;;;;;;4.22;100.00;101556.03;4956476;28;20078;-62
2022/11/05 06:53:16;;;;;;;13.60;10.90;;;;;;;4.22;100.00;101550.91;4958680;28;20031;-61
2022/11/05 06:55:43;;;;;;;11.93;10.63;;;;;;;4.22;100.00;101552.56;4955737;28;20097;-62
2022/11/05 06:58:08;;;;;;;16.63;12.20;;;;;;;4.20;100.00;101557.59;4953292;28;20355;-62
2022/11/05 07:00:34;;;;;;;14.53;11.97;;;;;;;4.20;100.00;101557.59;4948833;28;20020;-62
2022/11/05 07:03:06;;;;;;;15.00;11.33;;;;;;;4.19;100.00;101561.84;4952700;28;20015;-62
2022/11/05 07:05:33;;;;;;;18.17;12.93;;;;;;;4.18;100.00;101559.16;4948283;28;20042;-62
2022/11/05 07:07:59;;;;;;;18.63;13.70;;;;;;;4.18;100.00;101564.31;4947940;28;20056;-62
2022/11/05 07:10:24;;;;;;;15.73;12.73;;;;;;;4.17;100.00;101565.97;4952188;28;20472;-62
2022/11/05 07:12:49;;;;;;;18.37;12.77;;;;;;;4.18;100.00;101574.56;4952535;28;20037;-62
2022/11/05 07:15:15;;;;;;;14.37;11.40;;;;;;;4.19;100.00;101560.97;4958217;28;20290;-62
2022/11/05 07:17:40;;;;;;;13.20;10.77;;;;;;;4.23;100.00;101570.63;4967257;28;20069;-62
2022/11/05 07:20:07;;;;;;;15.03;11.07;;;;;;;4.26;100.00;101577.69;4966837;28;20027;-62
2022/11/05 07:22:33;;;;;;;15.03;11.07;;;;;;;4.26;100.00;101570.88;4968807;28;20094;-65
2022/11/05 07:24:59;;;;;;;14.57;11.60;;;;;;;4.28;100.00;101578.69;4963202;28;20133;-64
2022/11/05 07:27:24;;;;;;;15.73;10.83;;;;;;;4.29;100.00;101570.19;4959215;28;20027;-64
2022/11/05 07:29:49;;;;;;;16.90;11.53;;;;;;;4.32;100.00;101583.22;4967758;28;20029;-64
2022/11/05 07:32:14;;;;;;;12.80;11.33;;;;;;;4.36;100.00;101576.63;4967518;28;20049;-64
2022/11/05 07:34:40;;;;;;;16.10;10.37;;;;;;;4.37;100.00;101581.00;4955492;28;20035;-64
2022/11/05 07:37:05;;;;;;;17.73;12.30;;;;;;;4.42;100.00;101585.66;4960286;28;20030;-64
2022/11/05 07:39:30;;;;;;;17.17;11.23;;;;;;;4.45;100.00;101584.97;4967573;28;20022;-62
2022/11/05 07:41:56;;;;;;;16.97;12.27;;;;;;;4.48;100.00;101590.31;4967830;28;20015;-61
2022/11/05 07:44:22;;;;;;;15.03;10.87;;;;;;;4.51;100.00;101590.53;4979771;28;20069;-62
2022/11/05 07:46:48;;;;;;;16.03;12.00;;;;;;;4.54;100.00;101595.88;4971481;28;20043;-62
2022/11/05 07:49:13;;;;;;;17.48;12.70;;;;;;;4.59;100.00;101603.88;4982448;28;20122;-61
2022/11/05 07:51:38;;;;;;;14.82;11.65;;;;;;;4.62;100.00;101598.09;4970481;28;20443;-62
2022/11/05 07:54:04;;;;;;;17.33;11.10;;;;;;;4.65;100.00;101599.19;4971010;28;20038;-62
2022/11/05 07:56:29;;;;;;;15.95;13.23;;;;;;;4.70;100.00;101596.91;4957799;28;20057;-62
2022/11/05 07:58:54;;;;;;;18.15;12.70;;;;;;;4.75;100.00;101595.56;4971208;28;20506;-62
2022/11/05 08:01:20;;;;;;;17.73;12.10;;;;;;;4.79;100.00;101605.25;4963086;28;20041;-62
2022/11/05 08:03:45;;;;;;;15.52;12.07;;;;;;;4.84;100.00;101604.69;4973550;28;20076;-65
2022/11/05 08:06:10;;;;;;;19.77;12.23;;;;;;;4.89;100.00;101595.63;4971054;28;20331;-63
2022/11/05 08:08:36;;;;;;;14.70;11.50;;;;;;;4.93;100.00;101597.56;4956180;28;20015;-62
2022/11/05 08:11:05;;;;;;;14.68;11.65;;;;;;;4.97;100.00;101602.16;4956383;28;20023;-62
2022/11/05 08:13:31;;;;;;;17.65;11.88;;;;;;;5.00;100.00;101599.78;4958981;28;20026;-62
2022/11/05 08:15:57;;;;;;;18.60;11.88;;;;;;;5.06;100.00;101599.31;4960043;28;20027;-63
2022/11/05 08:18:22;;;;;;;16.35;11.98;;;;;;;5.16;100.00;101598.25;4970839;28;20313;-62
2022/11/05 08:20:48;;;;;;;14.50;12.32;;;;;;;5.33;100.00;101593.31;4953671;28;20049;-62
2022/11/05 08:23:13;;;;;;;17.50;12.77;;;;;;;5.50;100.00;101595.34;4949880;28;20142;-62
2022/11/05 08:25:39;;;;;;;15.02;11.73;;;;;;;5.67;100.00;101602.34;4962605;28;20509;-62
2022/11/05 08:28:11;;;;;;;18.25;11.05;;;;;;;5.82;100.00;101592.13;4964228;28;20030;-63
2022/11/05 08:30:37;;;;;;;16.23;11.45;;;;;;;5.91;100.00;101595.31;4976167;28;20378;-62
2022/11/05 08:33:08;;;;;;;18.05;11.63;;;;;;;6.00;100.00;101588.16;4967038;28;20026;-63
2022/11/05 08:35:34;;;;;;;14.27;10.55;;;;;;;6.15;100.00;101597.69;4970078;28;20026;-62
2022/11/05 08:38:02;;;;;;;16.25;10.20;;;;;;;6.29;100.00;101592.47;4970785;28;20054;-62
2022/11/05 08:40:30;;;;;;;14.07;11.30;;;;;;;6.42;100.00;101596.72;4970142;28;20507;-63
2022/11/05 08:42:57;;;;;;;13.75;9.73;;;;;;;6.46;100.00;101599.56;4959641;28;20042;-63
2022/11/05 08:45:23;;;;;;;11.52;8.45;;;;;;;6.50;100.00;101605.78;4965801;28;20063;-62
2022/11/05 08:47:49;;;;;;;15.93;10.75;;;;;;;6.52;100.00;101598.16;4973733;28;20038;-63
2022/11/05 08:50:14;;;;;;;14.23;9.27;;;;;;;6.50;100.00;101600.63;4959659;28;20027;-62
2022/11/05 08:52:40;;;;;;;12.32;9.52;;;;;;;6.51;100.00;101599.84;4953710;28;20057;-62
2022/11/05 08:55:05;;;;;;;14.88;9.55;;;;;;;6.48;100.00;101600.53;4959894;28;20054;-62
2022/11/05 08:57:31;;;;;;;12.52;9.55;;;;;;;6.48;100.00;101603.13;4959077;28;20050;-63
2022/11/05 08:59:56;;;;;;;14.38;9.40;;;;;;;6.51;100.00;101599.84;4972301;28;20030;-62
2022/11/05 09:02:21;;;;;;;12.18;8.95;;;;;;;6.52;100.00;101608.44;4960220;28;20023;-62
2022/11/05 09:04:46;;;;;;;10.18;8.38;;;;;;;6.54;100.00;101600.03;4972401;28;20047;-62
2022/11/05 09:07:12;;;;;;;12.68;8.75;;;;;;;6.56;100.00;101601.03;4957382;28;20474;-62
2022/11/05 09:09:37;;;;;;;12.48;8.65;;;;;;;6.60;100.00;101596.94;4954959;28;20084;-62
2022/11/05 09:12:02;;;;;;;16.88;9.15;;;;;;;6.62;100.00;101603.06;4961692;28;20031;-62
2022/11/05 09:14:28;;;;;;;11.43;8.32;;;;;;;6.64;100.00;101610.91;4963176;28;20097;-63
2022/11/05 09:16:54;;;;;;;13.95;9.70;;;;;;;6.70;100.00;101611.25;4950570;28;20811;-63
2022/11/05 09:19:19;;;;;;;12.38;9.05;;;;;;;6.75;100.00;101603.78;4952137;28;20142;-62
2022/11/05 09:21:44;;;;;;;12.23;9.45;;;;;;;6.79;100.00;101603.19;4956609;28;20159;-63
2022/11/05 09:24:10;;;;;;;12.07;8.30;;;;;;;6.85;100.00;101608.72;4950228;28;20060;-62
2022/11/05 09:26:35;;;;;;;10.20;8.02;;;;;;;6.90;100.00;101608.97;4959923;28;20023;-63
2022/11/05 09:29:00;;;;;;;11.38;7.72;;;;;;;6.96;100.00;101606.78;4950458;28;20051;-63
2022/11/05 09:31:26;;;;;;;11.00;8.27;;;;;;;7.02;100.00;101611.38;4953697;28;20038;-62
2022/11/05 09:33:51;;;;;;;15.13;8.80;;;;;;;7.05;100.00;101602.16;4953698;28;20081;-63
2022/11/05 09:36:17;;;;;;;11.35;7.03;;;;;;;7.10;100.00;101605.00;4949807;28;20027;-63
2022/11/05 09:38:42;;;;;;;10.02;7.18;;;;;;;7.16;100.00;101605.34;4950898;28;20467;-62
2022/11/05 09:41:22;;;;;;;16.20;7.65;;;;;;;7.25;100.00;101614.44;4955087;28;20487;-62
2022/11/05 09:43:52;;;;;;;10.57;7.15;;;;;;;7.31;100.00;101618.25;4950273;28;20065;-62
2022/11/05 09:46:23;;;;;;;11.38;7.13;;;;;;;7.36;100.00;101618.50;4949122;28;20043;-62
2022/11/05 09:49:02;;;;;;;10.68;7.05;;;;;;;7.42;100.00;101613.72;4957405;28;20356;-63
2022/11/05 09:51:28;;;;;;;9.25;7.00;;;;;;;7.47;100.00;101620.81;4957788;28;20395;-63
2022/11/05 09:53:53;;;;;;;11.00;7.00;;;;;;;7.54;100.00;101628.09;4954191;28;20023;-65
2022/11/05 09:56:24;;;;;;;9.52;7.40;;;;;;;7.59;100.00;101631.84;4949503;28;20030;-63
2022/11/05 09:59:01;;;;;;;10.50;7.37;;;;;;;7.65;100.00;101637.34;4956652;28;20019;-63
2022/11/05 10:01:34;;;;;;;8.52;6.55;;;;;;;7.74;100.00;101636.09;4958257;28;20113;-63
2022/11/05 10:04:04;;;;;;;10.73;7.05;;;;;;;7.82;100.00;101634.84;4959454;28;20031;-64
2022/11/05 10:06:30;;;;;;;9.27;6.38;;;;;;;7.90;100.00;101638.75;4957190;28;20077;-63
2022/11/05 10:09:02;;;;;;;11.20;6.53;;;;;;;7.98;100.00;101630.53;4957400;28;20675;-63
2022/11/05 10:11:37;;;;;;;9.60;6.45;;;;;;;8.04;100.00;101642.09;4957089;28;20023;-63
2022/11/05 10:14:23;;;;;;;7.93;5.55;;;;;;;8.11;100.00;101639.84;4957216;28;20027;-63
2022/11/05 10:16:56;;;;;;;9.90;6.13;;;;;;;8.17;100.00;101641.06;4952890;28;20037;-63
2022/11/05 10:19:25;;;;;;;7.90;5.93;;;;;;;8.22;100.00;101645.59;4955522;28;20027;-63
2022/11/05 10:22:00;;;;;;;7.85;6.13;;;;;;;8.28;100.00;101651.09;4955135;28;20471;-63
2022/11/05 10:24:26;;;;;;;8.85;6.13;;;;;;;8.31;100.00;101651.25;4956097;28;20395;-63
2022/11/05 10:26:53;;;;;;;8.50;5.65;;;;;;;8.34;100.00;101658.28;4949524;28;20062;-64
2022/11/05 10:29:29;;;;;;;13.05;6.35;;;;;;;8.39;100.00;101665.50;4953569;28;20111;-63
2022/11/05 10:31:56;;;;;;;9.25;5.82;;;;;;;8.43;100.00;101663.06;4952826;28;20304;-63
2022/11/05 10:34:27;;;;;;;7.82;5.78;;;;;;;8.46;100.00;101665.81;4958323;28;20240;-63
2022/11/05 10:36:53;;;;;;;7.93;5.38;;;;;;;8.48;100.00;101662.50;4964954;28;20042;-63
2022/11/05 10:39:20;;;;;;;7.18;5.30;;;;;;;8.48;100.00;101661.63;4968402;28;20051;-64
2022/11/05 10:42:00;;;;;;;9.07;5.70;;;;;;;8.50;100.00;101662.59;4970922;28;20495;-63
2022/11/05 10:44:42;;;;;;;8.37;5.00;;;;;;;8.51;100.00;101659.19;4968146;28;20058;-63
2022/11/05 10:47:30;;;;;;;8.32;5.60;;;;;;;8.52;100.00;101660.97;4950199;28;20467;-63
2022/11/05 10:50:24;;;;;;;8.93;5.38;;;;;;;8.57;100.00;101663.84;4967099;28;20042;-64
2022/11/05 10:52:57;;;;;;;7.90;5.95;;;;;;;8.57;100.00;101658.66;4969279;28;20042;-63
2022/11/05 10:55:24;;;;;;;8.48;5.47;;;;;;;8.55;100.00;101658.56;4957496;28;20574;-63
2022/11/05 10:57:50;;;;;;;8.18;6.18;;;;;;;8.55;100.00;101650.81;4968153;28;20023;-63
2022/11/05 11:00:15;;;;;;;9.82;6.45;;;;;;;8.52;100.00;101641.22;4961379;28;20045;-63
2022/11/05 11:03:28;;;;;;;10.00;6.50;;;;;;;8.57;100.00;101649.22;4959046;28;20023;-64
2022/11/05 11:06:11;;;;;;;9.57;6.28;;;;;;;8.61;100.00;101658.03;4959201;28;20042;-64
2022/11/05 11:08:36;;;;;;;9.80;6.75;;;;;;;8.60;100.00;101651.97;4966200;28;20026;-64
2022/11/05 11:11:06;;;;;;;9.52;7.22;;;;;;;8.61;100.00;101656.34;4972769;28;20025;-64
2022/11/05 11:14:10;;;;;;;8.55;6.95;;;;;;;8.64;100.00;101651.34;4953403;28;20032;-64
2022/11/05 11:16:41;;;;;;;16.95;7.30;;;;;;;8.68;100.00;101646.31;4957146;28;20121;-64
2022/11/05 11:19:30;;;;;;;9.10;6.18;;;;;;;8.73;100.00;101647.44;4974932;28;20033;-64
2022/11/05 11:22:18;;;;;;;7.97;6.45;;;;;;;8.80;100.00;101648.66;4956687;28;20429;-64
2022/11/05 11:24:49;;;;;;;15.63;6.97;;;;;;;8.84;100.00;101645.44;4953024;28;20030;-64
2022/11/05 11:27:21;;;;;;;10.93;6.65;;;;;;;8.88;100.00;101643.09;4970295;28;20023;-64
2022/11/05 11:29:53;;;;;;;11.38;6.80;;;;;;;8.94;100.00;101641.63;4981229;28;20031;-64
2022/11/05 11:32:20;;;;;;;10.27;6.45;;;;;;;8.96;100.00;101642.63;4987653;28;20037;-64
2022/11/05 11:34:49;;;;;;;9.23;6.60;;;;;;;9.05;100.00;101640.47;4962361;28;20031;-64
2022/11/05 11:37:31;;;;;;;8.45;5.95;;;;;;;9.06;100.00;101641.38;4975766;28;20035;-64
2022/11/05 11:40:03;;;;;;;10.07;6.07;;;;;;;9.09;100.00;101645.00;4966992;28;20514;-64
2022/11/05 11:42:32;;;;;;;10.45;6.50;;;;;;;9.13;100.00;101649.53;4963582;28;20141;-64
2022/11/05 11:45:03;;;;;;;9.30;6.28;;;;;;;9.13;100.00;101636.59;4970149;28;20458;-64
2022/11/05 11:47:29;;;;;;;11.80;6.60;;;;;;;9.21;100.00;101636.09;4971306;28;20341;-64
2022/11/05 11:49:57;;;;;;;8.05;5.32;;;;;;;9.28;100.00;101640.78;4967810;28;20522;-64
2022/11/05 11:52:32;;;;;;;8.23;5.70;;;;;;;9.44;100.00;101641.53;4960714;28;20379;-64
2022/11/05 11:55:19;;;;;;;7.85;5.22;;;;;;;9.71;100.00;101633.34;4973774;28;20026;-64
2022/11/05 11:57:53;;;;;;;8.23;5.47;;;;;;;9.98;100.00;101635.47;4990797;28;20475;-64
2022/11/05 12:00:22;;;;;;;7.55;5.15;;;;;;;10.24;100.00;101633.19;4957796;28;20026;-64
2022/11/05 12:03:10;;;;;;;9.57;5.28;;;;;;;10.42;100.00;101627.09;4982166;28;20065;-64
2022/11/05 12:05:44;;;;;;;7.35;4.57;;;;;;;10.48;100.00;101619.63;4978434;28;20053;-64
2022/11/05 12:08:34;;;;;;;6.07;4.10;;;;;;;10.62;100.00;101619.34;4965162;28;20497;-64